Time;durP1;ratioP1;P1;durP2;ratioP2;P2;SDS_P1;SDS_P2;PMS_P1;PMS_P2;Temp;Humidity;BMP_temperature;BMP_pressure;BME280_temperature;BME280_humidity;BME280_pressure;Samples;Min_cycle;Max_cycle;Signal;HPM_P1;HPM_P2
2022/11/02 00:02:27;;;;;;;0.30;0.20;;;25.30;45.80;;;;;;5027202;28;20197;-57
2022/11/02 00:04:58;;;;;;;0.38;0.30;;;25.30;45.80;;;;;;5016081;28;20758;-49
2022/11/02 00:07:31;;;;;;;0.10;0.10;;;25.40;45.80;;;;;;5016073;28;20196;-60
2022/11/02 00:10:01;;;;;;;0.70;0.38;;;25.40;45.80;;;;;;5016008;28;20203;-59
2022/11/02 00:12:32;;;;;;;0.22;0.10;;;25.40;45.80;;;;;;5015865;28;20207;-59
2022/11/02 00:15:03;;;;;;;0.65;0.30;;;25.50;45.80;;;;;;5015689;28;20216;-54
2022/11/02 00:17:37;;;;;;;0.43;0.20;;;25.60;45.80;;;;;;5032943;28;20222;-71
2022/11/02 00:20:09;;;;;;;0.25;0.13;;;25.60;45.80;;;;;;5031868;28;20207;-69
2022/11/02 00:22:42;;;;;;;0.50;0.20;;;25.60;45.80;;;;;;5028529;28;20201;-63
2022/11/02 00:25:15;;;;;;;0.47;0.20;;;25.70;45.80;;;;;;5012469;28;20231;-64
2022/11/02 00:27:46;;;;;;;0.20;0.20;;;25.70;45.80;;;;;;5012772;28;20695;-57
2022/11/02 00:30:17;;;;;;;0.22;0.20;;;25.80;45.80;;;;;;5012661;28;20238;-67
2022/11/02 00:32:50;;;;;;;0.82;0.30;;;25.90;45.80;;;;;;5030886;28;20211;-62
2022/11/02 00:35:21;;;;;;;2.10;0.45;;;25.90;45.80;;;;;;5032208;28;20195;-55
2022/11/02 00:37:51;;;;;;;0.50;0.30;;;25.90;45.70;;;;;;5032181;28;20196;-62
2022/11/02 00:40:22;;;;;;;0.43;0.17;;;25.90;45.70;;;;;;5032223;28;20202;-60
2022/11/02 00:42:53;;;;;;;0.30;0.20;;;26.00;45.70;;;;;;5032195;28;20188;-64
2022/11/02 00:45:23;;;;;;;0.70;0.30;;;26.00;45.70;;;;;;5026075;28;20228;-58
2022/11/02 00:47:56;;;;;;;0.20;0.20;;;26.10;46.30;;;;;;5012303;28;20649;-65
2022/11/02 00:50:27;;;;;;;0.20;0.20;;;26.10;45.60;;;;;;5028411;28;20200;-63
2022/11/02 00:52:58;;;;;;;0.55;0.20;;;26.20;45.70;;;;;;5032302;28;20659;-64
2022/11/02 00:55:28;;;;;;;0.80;0.22;;;26.20;45.70;;;;;;5020022;28;20189;-65
2022/11/02 00:57:59;;;;;;;1.08;0.40;;;26.20;45.60;;;;;;5012456;28;20213;-70
2022/11/02 01:00:30;;;;;;;0.20;0.20;;;26.20;45.60;;;;;;5012076;28;20212;-58
2022/11/02 01:03:05;;;;;;;0.47;0.20;;;26.30;45.70;;;;;;5030520;28;20200;-66
2022/11/02 01:05:36;;;;;;;1.10;0.38;;;26.30;45.70;;;;;;5023877;28;20240;-57
2022/11/02 01:08:07;;;;;;;0.15;0.10;;;26.40;45.70;;;;;;5011201;28;20594;-55
2022/11/02 01:10:42;;;;;;;0.32;0.13;;;26.40;45.60;;;;;;5012049;28;20216;-57
2022/11/02 01:13:13;;;;;;;0.50;0.40;;;26.40;45.50;;;;;;5011944;28;20250;-54
2022/11/02 01:15:44;;;;;;;0.50;0.30;;;26.50;45.60;;;;;;5012066;28;20205;-69
2022/11/02 01:18:17;;;;;;;0.20;0.20;;;26.50;45.50;;;;;;5030728;28;20687;-57
2022/11/02 01:20:48;;;;;;;0.73;0.20;;;26.50;45.40;;;;;;5024292;28;20699;-66
2022/11/02 01:23:19;;;;;;;0.13;0.13;;;26.50;45.30;;;;;;5011973;28;20197;-68
2022/11/02 01:25:50;;;;;;;0.70;0.20;;;26.60;45.20;;;;;;5011552;28;20252;-60
2022/11/02 01:28:21;;;;;;;1.45;0.25;;;26.60;45.10;;;;;;5011995;28;20225;-50
2022/11/02 01:30:51;;;;;;;0.40;0.13;;;26.60;45.00;;;;;;5011132;28;20200;-55
2022/11/02 01:33:25;;;;;;;0.43;0.20;;;26.60;45.00;;;;;;5010879;28;20205;-57
2022/11/02 01:35:56;;;;;;;0.10;0.10;;;26.60;44.80;;;;;;5011652;28;20622;-65
2022/11/02 01:38:27;;;;;;;1.45;0.20;;;26.60;44.70;;;;;;5024569;28;20207;-63
2022/11/02 01:40:58;;;;;;;0.40;0.20;;;26.60;44.70;;;;;;5031650;28;20196;-69
2022/11/02 01:43:30;;;;;;;0.40;0.10;;;26.70;44.60;;;;;;5031515;28;20207;-63
2022/11/02 01:46:05;;;;;;;2.13;0.30;;;26.70;44.50;;;;;;5030851;28;20223;-56
2022/11/02 01:48:41;;;;;;;2.50;0.20;;;26.70;44.40;;;;;;5012105;28;20223;-69
2022/11/02 01:51:14;;;;;;;1.10;0.22;;;26.70;44.30;;;;;;5020630;28;20203;-56
2022/11/02 01:53:50;;;;;;;1.27;0.30;;;26.80;44.30;;;;;;5010799;28;20201;-67
2022/11/02 01:56:23;;;;;;;0.50;0.13;;;26.80;44.30;;;;;;5010979;28;20255;-70
2022/11/02 01:58:59;;;;;;;0.88;0.30;;;26.80;44.20;;;;;;5011116;28;20236;-59
2022/11/02 02:01:30;;;;;;;0.80;0.20;;;26.80;44.00;;;;;;5014170;28;20219;-70
2022/11/02 02:04:04;;;;;;;0.65;0.20;;;26.80;44.00;;;;;;5030667;28;20196;-59
2022/11/02 02:06:36;;;;;;;0.82;0.30;;;26.90;44.00;;;;;;5029162;28;20691;-65
2022/11/02 02:09:08;;;;;;;1.67;0.20;;;26.90;44.00;;;;;;5029327;28;20224;-57
2022/11/02 02:11:42;;;;;;;0.20;0.10;;;26.90;44.00;;;;;;5010805;28;20204;-67
2022/11/02 02:14:15;;;;;;;1.38;0.30;;;26.90;43.90;;;;;;5011226;28;20192;-59
2022/11/02 02:16:58;;;;;;;0.40;0.10;;;27.00;43.90;;;;;;5015445;28;20277;-69
2022/11/02 02:19:42;;;;;;;0.75;0.20;;;27.00;43.90;;;;;;5030458;28;20212;-61
2022/11/02 02:22:46;;;;;;;0.20;0.20;;;27.00;43.80;;;;;;5011557;28;20250;-67
2022/11/02 02:25:38;;;;;;;0.10;0.10;;;27.00;43.60;;;;;;4989632;28;20688;-58
2022/11/02 02:28:18;;;;;;;0.28;0.17;;;27.10;43.50;;;;;;5010638;28;20217;-58
2022/11/02 02:30:56;;;;;;;0.20;0.10;;;27.10;43.40;;;;;;5010514;28;20743;-56
2022/11/02 02:33:33;;;;;;;0.00;0.00;;;27.10;43.40;;;;;;5018669;28;20251;-56
2022/11/02 02:36:10;;;;;;;0.20;0.10;;;27.10;43.40;;;;;;5010747;28;20196;-61
2022/11/02 02:38:48;;;;;;;0.25;0.10;;;27.20;43.40;;;;;;5010234;28;20266;-65
2022/11/02 02:41:25;;;;;;;0.45;0.10;;;27.20;43.40;;;;;;5010092;28;20203;-64
2022/11/02 02:44:00;;;;;;;0.52;0.20;;;27.20;43.20;;;;;;5010347;28;20204;-65
2022/11/02 02:46:35;;;;;;;0.10;0.10;;;27.30;43.30;;;;;;5011126;28;20236;-57
2022/11/02 02:49:08;;;;;;;1.90;0.20;;;27.20;43.30;;;;;;5029792;28;20621;-64
2022/11/02 02:51:45;;;;;;;0.38;0.20;;;27.30;43.30;;;;;;5029466;28;20644;-69
2022/11/02 02:54:20;;;;;;;1.80;0.10;;;27.30;43.20;;;;;;5017903;28;20234;-61
2022/11/02 02:56:55;;;;;;;0.20;0.10;;;27.30;43.00;;;;;;5010206;28;20258;-60
2022/11/02 02:59:31;;;;;;;0.00;0.00;;;27.40;43.00;;;;;;5010318;28;20238;-63
2022/11/02 03:02:02;;;;;;;1.05;0.20;;;27.40;42.70;;;;;;5014062;28;20246;-61
2022/11/02 03:04:32;;;;;;;0.25;0.10;;;27.40;42.70;;;;;;5017320;28;20195;-55
2022/11/02 03:07:04;;;;;;;0.40;0.10;;;27.50;42.60;;;;;;5009964;28;20221;-62
2022/11/02 03:09:42;;;;;;;1.45;0.10;;;27.50;42.40;;;;;;5009953;28;20228;-63
2022/11/02 03:12:24;;;;;;;0.10;0.10;;;27.60;42.50;;;;;;5009984;28;20688;-63
2022/11/02 03:15:09;;;;;;;0.13;0.10;;;27.60;42.50;;;;;;5009668;28;20205;-69
2022/11/02 03:17:48;;;;;;;0.10;0.10;;;27.60;42.50;;;;;;5015684;28;20642;-55
2022/11/02 03:20:26;;;;;;;0.82;0.17;;;27.60;43.10;;;;;;5021200;28;20730;-63
2022/11/02 03:23:10;;;;;;;1.15;0.10;;;27.70;42.70;;;;;;5009552;28;20625;-57
2022/11/02 03:25:50;;;;;;;0.17;0.10;;;27.70;42.60;;;;;;5009858;28;20215;-61
2022/11/02 03:28:29;;;;;;;0.68;0.05;;;27.70;42.70;;;;;;5009745;28;20223;-68
2022/11/02 03:31:10;;;;;;;0.93;0.20;;;27.80;42.70;;;;;;5009999;28;20193;-62
2022/11/02 03:33:46;;;;;;;0.17;0.13;;;27.80;43.20;;;;;;5025940;28;20196;-64
2022/11/02 03:36:21;;;;;;;0.30;0.10;;;27.80;42.50;;;;;;5028888;28;20551;-55
2022/11/02 03:38:58;;;;;;;0.63;0.15;;;27.80;42.40;;;;;;5017015;28;20228;-67
2022/11/02 03:41:30;;;;;;;0.60;0.10;;;27.80;42.40;;;;;;5009795;28;20193;-61
2022/11/02 03:44:07;;;;;;;0.15;0.10;;;27.90;42.40;;;;;;5010036;28;20208;-71
2022/11/02 03:46:43;;;;;;;0.17;0.17;;;27.90;42.30;;;;;;5010180;28;20233;-59
2022/11/02 03:49:18;;;;;;;0.13;0.10;;;27.90;42.30;;;;;;5015774;28;20223;-68
2022/11/02 03:51:50;;;;;;;0.13;0.10;;;27.90;42.20;;;;;;5029523;28;20444;-63
2022/11/02 03:54:29;;;;;;;1.02;0.00;;;28.00;42.40;;;;;;5030757;28;20200;-52
2022/11/02 03:57:05;;;;;;;0.35;0.13;;;28.00;42.30;;;;;;5033595;28;20200;-68
2022/11/02 03:59:35;;;;;;;0.20;0.10;;;28.00;42.30;;;;;;5033803;28;20224;-69
2022/11/02 04:02:11;;;;;;;0.00;0.00;;;28.00;42.30;;;;;;5032822;28;20196;-68
2022/11/02 04:04:52;;;;;;;0.43;0.30;;;28.10;42.40;;;;;;5032989;28;20209;-66
2022/11/02 04:07:25;;;;;;;0.50;0.20;;;28.10;42.30;;;;;;5033058;28;20228;-69
2022/11/02 04:09:56;;;;;;;0.60;0.20;;;28.10;42.40;;;;;;5032944;28;20228;-63
2022/11/02 04:15:14;;;;;;;0.93;0.63;;;28.10;42.30;;;;;;5032965;28;20202;-73
2022/11/02 04:20:33;;;;;;;1.20;0.73;;;28.10;42.10;;;;;;5032414;28;20811;-70
2022/11/02 04:25:55;;;;;;;1.98;0.98;;;28.10;42.20;;;;;;5032722;28;20191;-58
2022/11/02 04:28:26;;;;;;;2.50;1.00;;;28.20;42.20;;;;;;5032987;28;20215;-69
2022/11/02 04:30:59;;;;;;;1.63;0.95;;;28.20;42.20;;;;;;5032418;28;20219;-64
2022/11/02 04:33:33;;;;;;;4.00;1.00;;;28.10;42.10;;;;;;5032047;28;20200;-68
2022/11/02 04:36:05;;;;;;;1.40;0.85;;;28.20;42.20;;;;;;5032493;28;20218;-71
2022/11/02 04:38:40;;;;;;;2.15;1.10;;;28.10;42.20;;;;;;5032633;28;20220;-74
2022/11/02 04:43:59;;;;;;;2.65;1.35;;;28.10;42.20;;;;;;5032524;28;20219;-65
2022/11/02 04:46:31;;;;;;;2.38;1.10;;;28.10;42.20;;;;;;5032391;28;20228;-61
2022/11/02 04:49:03;;;;;;;2.50;1.20;;;28.10;42.30;;;;;;5031240;28;20583;-72
2022/11/02 04:51:35;;;;;;;2.95;1.58;;;28.10;42.30;;;;;;5031917;28;20543;-64
2022/11/02 04:54:06;;;;;;;3.20;1.30;;;28.10;42.40;;;;;;5031547;28;20202;-70
2022/11/02 04:56:37;;;;;;;2.45;1.40;;;28.10;42.40;;;;;;5030476;28;20200;-59
2022/11/02 04:59:08;;;;;;;3.42;2.00;;;28.10;42.50;;;;;;5032175;28;20231;-69
2022/11/02 05:01:39;;;;;;;4.53;1.63;;;28.10;42.50;;;;;;5032762;28;20218;-68
2022/11/02 05:04:13;;;;;;;3.00;1.60;;;28.10;42.50;;;;;;5031444;28;20219;-71
2022/11/02 05:06:43;;;;;;;3.45;1.73;;;28.00;42.40;;;;;;5032434;28;20232;-66
2022/11/02 05:09:14;;;;;;;4.07;2.08;;;28.10;42.40;;;;;;5031987;28;20219;-72
2022/11/02 05:11:45;;;;;;;4.18;2.05;;;28.00;42.30;;;;;;5031727;28;20787;-68
2022/11/02 05:14:16;;;;;;;4.72;2.40;;;28.10;42.20;;;;;;5031720;28;20222;-62
2022/11/02 05:16:47;;;;;;;6.47;2.63;;;28.00;42.10;;;;;;5031683;28;20200;-68
2022/11/02 05:19:19;;;;;;;4.93;2.53;;;28.00;42.10;;;;;;5031247;28;20251;-60
2022/11/02 05:21:50;;;;;;;5.30;2.65;;;28.00;42.10;;;;;;5031592;28;20275;-49
2022/11/02 05:24:21;;;;;;;7.95;3.00;;;28.00;42.20;;;;;;5031675;28;20200;-68
2022/11/02 05:26:52;;;;;;;5.43;3.03;;;28.00;42.10;;;;;;5031557;28;20266;-56
2022/11/02 05:29:22;;;;;;;6.35;3.17;;;27.90;42.10;;;;;;5031422;28;20212;-59
2022/11/02 05:31:53;;;;;;;5.38;2.92;;;27.90;42.20;;;;;;5031048;28;20754;-61
2022/11/02 05:34:26;;;;;;;6.50;3.10;;;27.90;42.20;;;;;;5030602;28;20210;-68
2022/11/02 05:36:57;;;;;;;5.40;2.97;;;27.90;42.30;;;;;;5031407;28;20620;-66
2022/11/02 05:39:28;;;;;;;5.63;3.13;;;27.90;42.20;;;;;;5031217;28;20789;-67
2022/11/02 05:41:59;;;;;;;5.70;2.95;;;27.90;42.20;;;;;;5031276;28;20231;-58
2022/11/02 05:44:30;;;;;;;4.97;2.78;;;27.90;42.20;;;;;;5031415;28;20196;-64
2022/11/02 05:47:01;;;;;;;5.50;2.70;;;27.80;42.30;;;;;;5031300;28;20311;-57
2022/11/02 05:49:34;;;;;;;6.32;3.17;;;27.80;42.20;;;;;;5030277;28;20696;-73
2022/11/02 05:52:04;;;;;;;7.07;3.40;;;27.80;42.20;;;;;;5030933;28;20642;-55
2022/11/02 05:54:35;;;;;;;6.60;3.25;;;27.80;42.20;;;;;;5030864;28;20544;-68
2022/11/02 05:57:06;;;;;;;5.60;3.05;;;27.80;42.10;;;;;;5030946;28;20295;-61
2022/11/02 05:59:37;;;;;;;6.78;3.15;;;27.80;42.20;;;;;;5030918;28;20223;-74
2022/11/02 06:02:08;;;;;;;4.90;3.10;;;27.80;42.30;;;;;;5031609;28;20239;-62
2022/11/02 06:04:40;;;;;;;5.72;2.60;;;27.80;42.30;;;;;;5030349;28;20559;-61
2022/11/02 06:07:11;;;;;;;5.47;2.95;;;27.70;42.30;;;;;;5030997;28;20578;-65
2022/11/02 06:09:42;;;;;;;5.43;2.75;;;27.70;42.30;;;;;;5030860;28;20212;-62
2022/11/02 06:12:13;;;;;;;5.00;2.70;;;27.70;42.30;;;;;;5030415;28;20200;-71
2022/11/02 06:14:44;;;;;;;4.85;2.67;;;27.70;42.30;;;;;;5030157;28;20574;-73
2022/11/02 06:17:15;;;;;;;7.07;3.38;;;27.70;42.30;;;;;;5029502;28;20568;-60
2022/11/02 06:19:48;;;;;;;7.07;3.20;;;27.70;42.30;;;;;;5030133;28;20219;-63
2022/11/02 06:22:19;;;;;;;5.50;2.95;;;27.70;42.30;;;;;;5030365;28;20200;-67
2022/11/02 06:24:50;;;;;;;6.93;3.00;;;27.70;42.30;;;;;;5030273;28;20200;-55
2022/11/02 06:27:21;;;;;;;5.32;2.92;;;27.70;42.30;;;;;;5030142;28;20413;-61
2022/11/02 06:29:52;;;;;;;4.97;2.70;;;27.70;42.20;;;;;;5030140;28;20216;-68
2022/11/02 06:32:23;;;;;;;4.32;2.50;;;27.70;42.20;;;;;;5030736;28;20199;-69
2022/11/02 06:34:55;;;;;;;4.55;2.60;;;27.60;42.10;;;;;;5030087;28;20199;-68
2022/11/02 06:37:26;;;;;;;3.78;2.60;;;27.60;42.10;;;;;;5030664;28;20208;-72
2022/11/02 06:39:57;;;;;;;5.32;2.50;;;27.60;42.10;;;;;;5030506;28;20295;-59
2022/11/02 06:42:28;;;;;;;4.60;2.78;;;27.60;42.20;;;;;;5030467;28;20252;-67
2022/11/02 06:45:01;;;;;;;5.28;2.50;;;27.60;42.20;;;;;;5030473;28;20202;-73
2022/11/02 06:47:36;;;;;;;4.72;2.50;;;27.60;42.20;;;;;;5030150;28;20233;-64
2022/11/02 06:50:09;;;;;;;6.03;2.58;;;27.60;42.20;;;;;;5027658;28;20683;-67
2022/11/02 06:52:45;;;;;;;5.15;2.40;;;27.60;42.20;;;;;;5029889;28;20200;-71
2022/11/02 06:55:17;;;;;;;4.40;2.40;;;27.60;42.20;;;;;;5029990;28;20218;-59
2022/11/02 06:57:48;;;;;;;4.28;2.20;;;27.60;42.20;;;;;;5029330;28;20192;-68
2022/11/02 07:00:20;;;;;;;3.65;2.03;;;27.50;42.10;;;;;;5010185;28;20205;-60
2022/11/02 07:03:02;;;;;;;4.57;2.10;;;27.50;42.10;;;;;;5011057;28;20197;-64
2022/11/02 07:05:35;;;;;;;3.60;1.92;;;27.50;42.10;;;;;;5010365;28;20200;-57
2022/11/02 07:08:07;;;;;;;3.10;1.63;;;27.40;42.00;;;;;;5010296;28;20739;-65
2022/11/02 07:10:38;;;;;;;3.85;2.10;;;27.40;42.00;;;;;;5010113;28;20201;-67
2022/11/02 07:13:09;;;;;;;2.53;1.70;;;27.40;42.00;;;;;;5010144;28;20201;-55
2022/11/02 07:15:40;;;;;;;1.95;1.45;;;27.30;41.90;;;;;;5010234;28;20205;-60
2022/11/02 07:18:11;;;;;;;2.10;1.60;;;27.30;41.90;;;;;;5010596;28;20213;-66
2022/11/02 07:20:44;;;;;;;3.97;1.80;;;27.30;42.00;;;;;;5029628;28;20282;-70
2022/11/02 07:23:15;;;;;;;3.17;1.90;;;27.30;42.00;;;;;;5029890;28;20581;-71
2022/11/02 07:25:46;;;;;;;2.83;1.60;;;27.30;42.00;;;;;;5029500;28;20196;-58
2022/11/02 07:28:17;;;;;;;2.90;1.40;;;27.30;42.00;;;;;;5031138;28;20691;-63
2022/11/02 07:30:48;;;;;;;3.90;1.90;;;27.20;42.00;;;;;;5033850;28;20196;-73
2022/11/02 07:33:19;;;;;;;2.40;1.55;;;27.20;42.00;;;;;;5033153;28;20196;-61
2022/11/02 07:35:52;;;;;;;2.78;1.70;;;27.20;41.90;;;;;;5033863;28;20677;-64
2022/11/02 07:38:23;;;;;;;3.05;1.60;;;27.20;42.00;;;;;;5033147;28;20220;-66
2022/11/02 07:40:53;;;;;;;3.33;1.77;;;27.10;41.90;;;;;;5033212;28;20200;-57
2022/11/02 07:43:24;;;;;;;1.83;1.40;;;27.10;41.90;;;;;;5033376;28;20279;-69
2022/11/02 07:45:58;;;;;;;2.67;1.70;;;27.10;41.90;;;;;;5033060;28;20212;-61
2022/11/02 07:48:28;;;;;;;2.70;1.60;;;27.10;41.90;;;;;;5032434;28;20224;-59
2022/11/02 07:51:02;;;;;;;2.10;1.30;;;27.00;41.90;;;;;;5013360;28;20200;-71
2022/11/02 07:53:33;;;;;;;2.05;1.50;;;27.00;41.90;;;;;;5012976;28;20201;-66
2022/11/02 07:56:04;;;;;;;3.17;1.60;;;27.00;41.90;;;;;;5013075;28;20203;-64
2022/11/02 07:58:35;;;;;;;2.60;1.25;;;27.00;41.90;;;;;;5013498;28;20231;-70
2022/11/02 08:01:06;;;;;;;2.58;1.50;;;27.00;42.00;;;;;;5014124;28;20203;-61
2022/11/02 08:03:36;;;;;;;2.00;1.05;;;27.00;42.10;;;;;;5014938;28;20200;-72
2022/11/02 08:06:09;;;;;;;3.67;1.63;;;27.00;42.10;;;;;;5032941;28;20223;-64
2022/11/02 08:08:43;;;;;;;2.17;1.30;;;26.90;42.10;;;;;;5032834;28;20234;-75
2022/11/02 08:11:14;;;;;;;1.95;1.20;;;26.90;42.00;;;;;;5032959;28;20227;-69
2022/11/02 08:13:45;;;;;;;2.92;1.52;;;26.90;42.10;;;;;;5033357;28;20203;-63
2022/11/02 08:16:16;;;;;;;1.85;1.23;;;26.90;42.10;;;;;;5032915;28;20196;-60
2022/11/02 08:18:47;;;;;;;2.53;1.38;;;26.80;42.10;;;;;;5032600;28;20220;-54
2022/11/02 08:21:19;;;;;;;2.17;1.35;;;26.80;42.10;;;;;;5032868;28;20198;-74
2022/11/02 08:23:50;;;;;;;2.78;1.27;;;26.80;42.10;;;;;;5032691;28;20200;-58
2022/11/02 08:26:21;;;;;;;2.60;1.30;;;26.70;42.00;;;;;;5032747;28;20207;-56
2022/11/02 08:28:52;;;;;;;1.77;1.23;;;26.70;42.10;;;;;;5032556;28;20621;-58
2022/11/02 08:31:22;;;;;;;1.38;1.10;;;26.70;42.10;;;;;;5032867;28;20207;-60
2022/11/02 08:33:54;;;;;;;2.05;1.25;;;26.70;42.20;;;;;;5032425;28;20196;-58
2022/11/02 08:36:26;;;;;;;1.98;1.05;;;26.60;42.10;;;;;;5033216;28;20200;-63
2022/11/02 08:38:57;;;;;;;2.75;1.40;;;26.60;42.10;;;;;;5032128;28;20584;-64
2022/11/02 08:41:28;;;;;;;2.33;1.20;;;26.60;42.10;;;;;;5028941;28;20184;-68
2022/11/02 08:43:58;;;;;;;2.30;1.10;;;26.60;42.10;;;;;;5013273;28;20207;-59
2022/11/02 08:46:31;;;;;;;2.42;1.20;;;26.50;42.00;;;;;;5012840;28;20196;-59
2022/11/02 08:49:01;;;;;;;1.70;1.15;;;26.50;42.00;;;;;;5016426;28;20235;-69
2022/11/02 08:51:34;;;;;;;2.28;1.00;;;26.50;42.00;;;;;;5032170;28;20218;-56
2022/11/02 08:54:05;;;;;;;1.33;1.02;;;26.50;42.00;;;;;;5032163;28;20429;-66
2022/11/02 08:56:35;;;;;;;0.77;0.77;;;26.50;42.00;;;;;;5032062;28;20279;-63
2022/11/02 08:59:06;;;;;;;1.75;0.98;;;26.50;41.90;;;;;;5031715;28;20744;-65
2022/11/02 09:01:37;;;;;;;1.73;1.00;;;26.40;41.80;;;;;;5032593;28;20291;-72
2022/11/02 09:04:08;;;;;;;1.13;0.98;;;26.40;41.80;;;;;;5032363;28;20239;-60
2022/11/02 09:06:41;;;;;;;1.52;0.90;;;26.40;41.80;;;;;;5032129;28;20554;-52
2022/11/02 09:09:12;;;;;;;1.92;1.00;;;26.30;41.80;;;;;;5032021;28;20232;-54
2022/11/02 09:11:44;;;;;;;1.52;0.85;;;26.30;41.80;;;;;;5031863;28;20195;-64
2022/11/02 09:14:14;;;;;;;1.42;1.10;;;26.30;41.90;;;;;;5031726;28;20217;-71
2022/11/02 09:16:45;;;;;;;1.60;0.90;;;26.30;41.90;;;;;;5031587;28;20199;-65
2022/11/02 09:19:16;;;;;;;0.98;0.77;;;26.20;41.80;;;;;;5031186;28;20695;-62
2022/11/02 09:21:50;;;;;;;1.10;0.80;;;26.20;41.90;;;;;;5031621;28;20196;-68
2022/11/02 09:24:20;;;;;;;1.45;1.00;;;26.20;41.90;;;;;;5031630;28;20192;-62
2022/11/02 09:26:53;;;;;;;1.60;0.80;;;26.20;42.00;;;;;;5031861;28;20767;-69
2022/11/02 09:29:24;;;;;;;1.30;0.90;;;26.20;42.00;;;;;;5031702;28;20243;-58
2022/11/02 09:31:55;;;;;;;0.93;0.70;;;26.20;42.00;;;;;;5031972;28;20208;-61
2022/11/02 09:34:26;;;;;;;1.30;1.00;;;26.10;42.00;;;;;;5031029;28;20203;-60
2022/11/02 09:36:59;;;;;;;1.42;0.88;;;26.10;42.00;;;;;;5032071;28;20199;-64
2022/11/02 09:39:30;;;;;;;1.25;0.70;;;26.10;42.10;;;;;;5031927;28;20348;-70
2022/11/02 09:42:12;;;;;;;1.13;0.88;;;26.10;42.10;;;;;;5032246;28;20199;-64
2022/11/02 09:44:51;;;;;;;1.48;0.82;;;26.00;42.10;;;;;;5032132;28;20200;-62
2022/11/02 09:47:23;;;;;;;0.93;0.75;;;26.00;42.10;;;;;;5031858;28;20211;-64
2022/11/02 09:49:54;;;;;;;2.08;0.93;;;26.00;42.20;;;;;;5031590;28;20216;-66
2022/11/02 09:52:31;;;;;;;1.02;0.93;;;26.00;42.20;;;;;;5031637;28;20202;-68
2022/11/02 09:55:04;;;;;;;1.42;0.80;;;25.90;42.20;;;;;;5031035;28;20196;-70
2022/11/02 09:57:35;;;;;;;1.00;0.80;;;25.90;42.20;;;;;;5030953;28;20230;-61
2022/11/02 10:00:07;;;;;;;0.88;0.80;;;25.90;42.20;;;;;;5031016;28;20265;-66
2022/11/02 10:02:56;;;;;;;1.73;0.80;;;25.90;42.20;;;;;;5031300;28;20208;-53
2022/11/02 10:05:39;;;;;;;0.70;0.70;;;25.90;42.30;;;;;;5030585;28;20283;-55
2022/11/02 10:08:38;;;;;;;0.95;0.73;;;25.90;42.30;;;;;;5030476;28;20230;-58
2022/11/02 10:11:21;;;;;;;1.42;0.90;;;25.80;42.20;;;;;;5030868;28;20711;-58
2022/11/02 10:13:56;;;;;;;0.80;0.68;;;25.80;42.30;;;;;;5030576;28;20192;-56
2022/11/02 10:16:32;;;;;;;0.93;0.63;;;25.80;42.30;;;;;;5031097;28;20192;-67
2022/11/02 10:19:05;;;;;;;1.65;0.68;;;25.70;42.20;;;;;;5030942;28;20331;-66
2022/11/02 10:21:39;;;;;;;1.30;0.80;;;25.70;42.30;;;;;;5030186;28;20200;-64
2022/11/02 10:24:23;;;;;;;1.42;0.60;;;25.70;42.30;;;;;;5030688;28;20694;-68
2022/11/02 10:26:57;;;;;;;0.75;0.60;;;25.60;42.30;;;;;;5030839;28;20222;-65
2022/11/02 10:29:43;;;;;;;0.52;0.50;;;25.60;42.30;;;;;;5030663;28;20587;-63
2022/11/02 10:32:16;;;;;;;0.75;0.57;;;25.60;42.30;;;;;;5021047;28;20199;-74
2022/11/02 10:34:48;;;;;;;0.85;0.55;;;25.60;42.30;;;;;;5014115;28;20203;-63
2022/11/02 10:37:35;;;;;;;0.80;0.68;;;25.60;42.30;;;;;;5030730;28;20207;-69
2022/11/02 10:40:26;;;;;;;1.00;0.60;;;25.60;42.40;;;;;;5030430;28;20589;-66
2022/11/02 10:43:10;;;;;;;1.42;0.80;;;25.60;42.30;;;;;;5030123;28;20656;-61
2022/11/02 10:46:03;;;;;;;0.60;0.60;;;25.60;42.30;;;;;;5030197;28;20208;-70
2022/11/02 10:48:42;;;;;;;1.45;0.70;;;25.50;42.30;;;;;;5030013;28;20376;-60
2022/11/02 10:51:14;;;;;;;1.15;0.80;;;25.50;42.30;;;;;;5029339;28;20196;-64
2022/11/02 10:53:46;;;;;;;1.10;0.55;;;25.50;42.30;;;;;;5029912;28;20193;-62
2022/11/02 10:56:22;;;;;;;0.60;0.60;;;25.50;42.30;;;;;;5029782;28;20196;-64
2022/11/02 10:59:04;;;;;;;0.85;0.60;;;25.40;42.30;;;;;;5030343;28;20215;-61
2022/11/02 11:01:35;;;;;;;1.08;0.60;;;25.40;42.30;;;;;;5029942;28;20194;-54
2022/11/02 11:04:07;;;;;;;0.65;0.40;;;25.40;42.30;;;;;;5029226;28;20587;-61
2022/11/02 11:06:41;;;;;;;0.50;0.40;;;25.30;42.30;;;;;;5029295;28;20594;-60
2022/11/02 11:09:19;;;;;;;0.90;0.68;;;25.30;42.30;;;;;;5029885;28;20223;-68
2022/11/02 11:12:02;;;;;;;0.47;0.40;;;25.30;42.30;;;;;;5030223;28;20585;-58
2022/11/02 11:14:38;;;;;;;0.60;0.55;;;25.30;42.30;;;;;;5030125;28;20207;-58
2022/11/02 11:17:19;;;;;;;1.63;0.60;;;25.30;42.30;;;;;;5030011;28;20628;-59
2022/11/02 11:19:55;;;;;;;0.82;0.40;;;25.30;42.30;;;;;;5029565;28;20717;-69
2022/11/02 11:22:31;;;;;;;0.73;0.50;;;25.30;42.30;;;;;;5029729;28;20210;-66
2022/11/02 11:25:24;;;;;;;0.70;0.60;;;25.30;42.30;;;;;;5029691;28;20222;-57
2022/11/02 11:27:58;;;;;;;0.70;0.55;;;25.20;42.30;;;;;;5029662;28;20656;-55
2022/11/02 11:30:32;;;;;;;0.50;0.50;;;25.20;42.30;;;;;;5029400;28;20287;-59
2022/11/02 11:33:03;;;;;;;0.57;0.47;;;25.20;42.30;;;;;;5029753;28;20235;-68
2022/11/02 11:35:36;;;;;;;0.55;0.55;;;25.20;42.40;;;;;;5028927;28;20672;-52
2022/11/02 11:38:09;;;;;;;0.85;0.57;;;25.20;42.50;;;;;;5009721;28;20554;-67
2022/11/02 11:40:45;;;;;;;0.43;0.30;;;25.10;42.40;;;;;;5009978;28;20673;-61
2022/11/02 11:43:21;;;;;;;0.55;0.40;;;25.20;42.50;;;;;;5009606;28;20201;-68
2022/11/02 11:45:59;;;;;;;0.93;0.40;;;25.10;42.50;;;;;;5009736;28;20660;-65
2022/11/02 11:48:41;;;;;;;1.60;0.40;;;25.10;42.40;;;;;;5010112;28;20221;-69
2022/11/02 11:51:33;;;;;;;0.60;0.50;;;25.10;42.40;;;;;;5021304;28;20283;-67
2022/11/02 11:54:26;;;;;;;0.70;0.43;;;25.10;42.50;;;;;;5029250;28;20716;-62
2022/11/02 11:56:59;;;;;;;0.47;0.47;;;25.10;42.50;;;;;;5029483;28;20249;-71
2022/11/02 11:59:45;;;;;;;0.70;0.40;;;25.10;42.40;;;;;;5029202;28;20228;-68
2022/11/02 12:02:25;;;;;;;0.73;0.40;;;25.10;42.40;;;;;;5029993;28;20223;-67
2022/11/02 12:05:02;;;;;;;0.22;0.22;;;25.10;42.40;;;;;;5029004;28;20262;-66
2022/11/02 12:07:57;;;;;;;0.32;0.32;;;25.00;42.50;;;;;;5029587;28;20246;-62
2022/11/02 12:10:41;;;;;;;0.40;0.30;;;25.00;42.50;;;;;;5029473;28;20223;-64
2022/11/02 12:13:25;;;;;;;0.30;0.30;;;25.00;42.50;;;;;;5029615;28;20570;-63
2022/11/02 12:16:13;;;;;;;0.47;0.35;;;24.90;42.50;;;;;;5031445;28;20219;-70
2022/11/02 12:18:58;;;;;;;0.40;0.40;;;24.90;42.60;;;;;;5032919;28;20223;-70
2022/11/02 12:21:45;;;;;;;0.47;0.43;;;24.90;42.60;;;;;;5032478;28;20291;-70
2022/11/02 12:24:41;;;;;;;0.40;0.40;;;24.90;42.50;;;;;;5033012;28;20201;-56
2022/11/02 12:27:28;;;;;;;0.50;0.40;;;24.90;42.50;;;;;;5030141;28;20247;-62
2022/11/02 12:30:18;;;;;;;0.30;0.25;;;24.90;42.60;;;;;;5032364;28;20250;-68
2022/11/02 12:33:24;;;;;;;0.40;0.40;;;24.90;42.60;;;;;;5032991;28;20200;-52
2022/11/02 12:36:17;;;;;;;0.25;0.25;;;24.90;42.60;;;;;;5032383;28;20196;-71
2022/11/02 12:39:00;;;;;;;0.45;0.40;;;24.90;42.60;;;;;;5032547;28;20222;-67
2022/11/02 12:41:57;;;;;;;0.50;0.30;;;24.90;42.60;;;;;;5032710;28;20196;-63
2022/11/02 12:44:57;;;;;;;0.68;0.38;;;24.80;42.70;;;;;;5032956;28;20200;-68
2022/11/02 12:47:46;;;;;;;0.60;0.50;;;24.80;42.70;;;;;;5032218;28;20672;-70
2022/11/02 12:50:24;;;;;;;0.65;0.40;;;24.70;42.70;;;;;;5028551;28;20255;-69
2022/11/02 12:53:05;;;;;;;0.75;0.38;;;24.70;42.80;;;;;;5024318;28;20283;-63
2022/11/02 12:55:40;;;;;;;0.38;0.38;;;24.70;42.80;;;;;;5032200;28;20675;-63
2022/11/02 12:58:26;;;;;;;0.30;0.20;;;24.70;42.80;;;;;;5032050;28;20246;-66
2022/11/02 13:01:02;;;;;;;0.20;0.20;;;24.70;42.70;;;;;;5031850;28;20283;-67
2022/11/02 13:03:41;;;;;;;0.40;0.30;;;24.70;42.70;;;;;;5032671;28;20680;-61
2022/11/02 13:06:18;;;;;;;0.20;0.20;;;24.70;42.80;;;;;;5031562;28;20232;-68
2022/11/02 13:08:52;;;;;;;0.40;0.40;;;24.70;42.70;;;;;;5031625;28;20286;-64
2022/11/02 13:11:30;;;;;;;0.30;0.30;;;24.70;42.70;;;;;;5031812;28;20204;-71
2022/11/02 13:14:05;;;;;;;0.20;0.20;;;24.60;42.80;;;;;;5031441;28;20232;-56
2022/11/02 13:16:42;;;;;;;0.35;0.35;;;24.60;42.80;;;;;;5031826;28;20714;-64
2022/11/02 13:19:20;;;;;;;0.30;0.30;;;24.60;42.90;;;;;;5031915;28;20307;-68
2022/11/02 13:21:57;;;;;;;0.32;0.25;;;24.60;42.90;;;;;;5031297;28;20196;-54
2022/11/02 13:24:36;;;;;;;0.32;0.28;;;24.60;42.90;;;;;;5031828;28;20257;-69
2022/11/02 13:27:12;;;;;;;0.30;0.30;;;24.50;43.00;;;;;;5031383;28;20853;-62
2022/11/02 13:29:46;;;;;;;0.30;0.30;;;24.50;43.00;;;;;;5031664;28;20292;-60
2022/11/02 13:32:25;;;;;;;0.25;0.20;;;24.50;43.00;;;;;;5032226;28;20199;-58
2022/11/02 13:35:00;;;;;;;0.30;0.30;;;24.50;43.00;;;;;;5031262;28;20262;-62
2022/11/02 13:37:37;;;;;;;0.20;0.20;;;24.50;42.90;;;;;;5027504;28;20660;-62
2022/11/02 13:40:16;;;;;;;0.30;0.30;;;24.50;42.90;;;;;;5011884;28;20220;-70